createdAt,value
2019-04-05T00:00:21.236Z,43.57
2019-04-05T00:02:51.719Z,44.70
2019-04-05T00:05:22.210Z,45.87
2019-04-05T00:07:52.844Z,47.97
2019-04-05T00:10:23.369Z,47.97
2019-04-05T00:12:53.862Z,49.17
2019-04-05T00:15:24.382Z,49.37
2019-04-05T00:17:54.882Z,50.57
2019-04-05T00:20:25.428Z,49.57
2019-04-05T00:22:55.903Z,50.83
2019-04-05T00:25:26.486Z,48.73
2019-04-05T00:27:56.932Z,49.47
2019-04-05T00:30:27.403Z,49.87
2019-04-05T00:32:57.901Z,49.40
2019-04-05T00:35:28.417Z,49.13
2019-04-05T00:37:58.861Z,50.87
2019-04-05T00:40:29.373Z,51.67
2019-04-05T00:42:59.816Z,49.70
2019-04-05T00:45:30.270Z,53.40
2019-04-05T00:48:00.852Z,53.13
2019-04-05T00:50:31.319Z,51.60
2019-04-05T00:53:01.798Z,54.10
2019-04-05T00:55:32.274Z,53.13
2019-04-05T00:58:02.772Z,51.90
2019-04-05T01:00:33.327Z,54.60
2019-04-05T01:03:03.823Z,54.70
2019-04-05T01:05:34.424Z,55.00
2019-04-05T01:08:05.034Z,54.07
2019-04-05T01:10:35.619Z,55.47
2019-04-05T01:13:06.192Z,55.60
2019-04-05T01:15:40.988Z,55.20
2019-04-05T01:18:09.171Z,58.73
2019-04-05T01:20:42.996Z,56.67
2019-04-05T01:23:14.823Z,56.40
2019-04-05T01:25:45.828Z,58.63
2019-04-05T01:28:18.176Z,57.37
2019-04-05T01:30:48.712Z,59.60
2019-04-05T01:33:19.178Z,60.57
2019-04-05T01:35:49.643Z,63.20
2019-04-05T01:38:20.109Z,62.03
2019-04-05T01:40:50.992Z,59.07
2019-04-05T01:43:21.659Z,61.20
2019-04-05T01:45:54.095Z,59.43
2019-04-05T01:48:24.774Z,60.07
2019-04-05T01:50:55.430Z,59.70
2019-04-05T01:53:25.941Z,60.67
2019-04-05T01:55:56.451Z,62.63
2019-04-05T01:58:26.947Z,61.30
2019-04-05T02:00:57.407Z,62.30
2019-04-05T02:03:27.901Z,62.13
2019-04-05T02:05:58.549Z,60.90
2019-04-05T02:08:29.653Z,62.37
2019-04-05T02:11:00.603Z,62.23
2019-04-05T02:13:31.069Z,63.60
2019-04-05T02:16:06.589Z,61.20
2019-04-05T02:18:33.776Z,59.77
2019-04-05T02:21:04.236Z,60.83
2019-04-05T02:23:34.770Z,62.20
2019-04-05T02:26:05.329Z,65.43
2019-04-05T02:28:35.933Z,60.13
2019-04-05T02:31:07.994Z,63.17
2019-04-05T02:33:40.520Z,60.27
2019-04-05T02:36:10.944Z,59.67
2019-04-05T02:38:41.368Z,59.27
2019-04-05T02:41:13.703Z,60.60
2019-04-05T02:43:47.328Z,57.83
2019-04-05T02:46:23.865Z,59.43
2019-04-05T02:48:55.921Z,59.90
2019-04-05T02:51:30.926Z,58.73
2019-04-05T02:54:04.116Z,60.17
2019-04-05T02:56:36.655Z,58.57
2019-04-05T02:59:08.587Z,60.23
2019-04-05T03:01:39.569Z,59.83
2019-04-05T03:04:10.253Z,59.60
2019-04-05T03:06:42.705Z,60.43
2019-04-05T03:09:15.643Z,60.47
2019-04-05T03:11:46.080Z,61.10
2019-04-05T03:14:18.249Z,60.07
2019-04-05T03:16:54.043Z,61.93
2019-04-05T03:19:34.586Z,60.27
2019-04-05T03:22:14.291Z,62.23
2019-04-05T03:24:47.103Z,62.20
2019-04-05T03:27:25.489Z,61.13
2019-04-05T03:29:59.117Z,62.07
2019-04-05T03:32:30.379Z,63.13
2019-04-05T03:35:02.325Z,63.20
2019-04-05T03:37:32.932Z,66.07
2019-04-05T03:40:05.684Z,64.97
2019-04-05T03:42:48.260Z,64.57
2019-04-05T03:45:18.820Z,65.33
2019-04-05T03:47:50.301Z,66.00
2019-04-05T03:50:20.894Z,68.53
2019-04-05T03:52:52.214Z,65.07
2019-04-05T03:55:24.065Z,67.67
2019-04-05T03:57:57.114Z,67.00
2019-04-05T04:00:29.703Z,66.27
2019-04-05T04:03:01.486Z,67.53
2019-04-05T04:05:33.256Z,68.20
2019-04-05T04:08:03.921Z,69.70
2019-04-05T04:10:35.191Z,66.23
2019-04-05T04:13:14.313Z,64.33
2019-04-05T04:15:51.201Z,65.30
2019-04-05T04:18:21.845Z,64.93
2019-04-05T04:20:57.641Z,64.87
2019-04-05T04:23:30.676Z,61.77
2019-04-05T04:26:03.839Z,63.37
2019-04-05T04:28:37.748Z,63.67
2019-04-05T04:31:08.765Z,66.07
2019-04-05T04:33:39.689Z,64.40
2019-04-05T04:36:13.049Z,63.00
2019-04-05T04:38:43.091Z,61.33
2019-04-05T04:41:19.485Z,61.13
2019-04-05T04:43:50.333Z,62.17
2019-04-05T04:46:21.917Z,63.83
2019-04-05T04:48:53.150Z,64.23
2019-04-05T04:51:24.316Z,64.23
2019-04-05T04:53:57.961Z,63.47
2019-04-05T04:56:28.988Z,65.33
2019-04-05T04:59:00.810Z,63.47
2019-04-05T05:01:32.111Z,62.53
2019-04-05T05:04:08.096Z,65.57
2019-04-05T05:06:37.659Z,64.10
2019-04-05T05:09:10.858Z,61.63
2019-04-05T05:11:41.404Z,62.07
2019-04-05T05:14:12.232Z,63.73
2019-04-05T05:16:42.882Z,62.83
2019-04-05T05:19:14.074Z,61.07
2019-04-05T05:21:47.178Z,61.03
2019-04-05T05:24:19.956Z,63.97
2019-04-05T05:26:50.567Z,61.63
2019-04-05T05:29:21.510Z,63.30
2019-04-05T05:31:52.137Z,60.77
2019-04-05T05:34:23.891Z,58.90
2019-04-05T05:36:56.041Z,57.53
2019-04-05T05:39:27.913Z,56.13
2019-04-05T05:41:58.355Z,60.90
2019-04-05T05:44:28.824Z,58.23
2019-04-05T05:46:59.885Z,58.47
2019-04-05T05:49:31.169Z,59.87
2019-04-05T05:52:02.749Z,59.80
2019-04-05T05:54:33.238Z,57.93
2019-04-05T05:57:03.830Z,62.10
2019-04-05T05:59:34.269Z,61.30
2019-04-05T06:02:07.127Z,58.67
2019-04-05T06:04:37.302Z,59.07
2019-04-05T06:07:08.900Z,59.30
2019-04-05T06:09:40.626Z,58.70
2019-04-05T06:12:11.050Z,57.60
2019-04-05T06:14:41.862Z,57.33
2019-04-05T06:17:12.281Z,55.87
2019-04-05T06:19:42.710Z,56.10
2019-04-05T06:22:14.547Z,55.00
2019-04-05T06:24:47.123Z,55.40
2019-04-05T06:27:19.683Z,54.60
2019-04-05T06:29:50.183Z,54.60
2019-04-05T06:32:21.272Z,55.20
2019-04-05T06:34:52.280Z,56.37
2019-04-05T06:37:24.558Z,54.67
2019-04-05T06:39:57.441Z,55.13
2019-04-05T06:42:27.858Z,54.40
2019-04-05T06:44:58.310Z,54.97
2019-04-05T06:47:28.727Z,55.83
2019-04-05T06:50:02.122Z,55.77
2019-04-05T06:52:34.350Z,56.13
2019-04-05T06:55:05.068Z,56.37
2019-04-05T06:57:35.718Z,60.20
2019-04-05T07:00:09.087Z,59.53
2019-04-05T07:02:41.107Z,58.67
2019-04-05T07:05:13.711Z,57.07
2019-04-05T07:07:45.507Z,59.33
2019-04-05T07:10:17.095Z,58.33
2019-04-05T07:12:49.707Z,59.70
2019-04-05T07:15:21.086Z,57.67
2019-04-05T07:17:52.176Z,58.57
2019-04-05T07:20:23.877Z,61.97
2019-04-05T07:22:57.177Z,56.70
2019-04-05T07:25:30.200Z,58.40
2019-04-05T07:28:00.813Z,56.73
2019-04-05T07:30:33.510Z,59.00
2019-04-05T07:33:05.997Z,57.50
2019-04-05T07:35:38.870Z,58.53
2019-04-05T07:38:12.562Z,57.07
2019-04-05T07:40:46.915Z,57.70
2019-04-05T07:43:17.422Z,57.40
2019-04-05T07:45:47.876Z,56.93
2019-04-05T07:48:20.056Z,60.40
2019-04-05T07:50:53.970Z,59.23
2019-04-05T07:53:24.617Z,60.23
2019-04-05T07:56:07.084Z,62.20
2019-04-05T07:58:38.054Z,61.07
2019-04-05T08:01:10.655Z,60.27
2019-04-05T08:03:42.758Z,62.93
2019-04-05T08:06:13.945Z,62.20
2019-04-05T08:09:05.861Z,61.33
2019-04-05T08:11:38.395Z,60.90
2019-04-05T08:14:51.700Z,61.30
2019-04-05T08:17:40.113Z,61.63
2019-04-05T08:20:11.143Z,64.70
2019-04-05T08:22:41.945Z,65.60
2019-04-05T08:25:19.507Z,63.37
2019-04-05T08:27:49.987Z,65.87
2019-04-05T08:30:23.934Z,64.50
2019-04-05T08:32:54.867Z,64.07
2019-04-05T08:35:26.686Z,63.33
2019-04-05T08:37:58.916Z,68.23
2019-04-05T08:40:30.828Z,65.90
2019-04-05T08:43:02.911Z,64.73
2019-04-05T08:45:35.037Z,67.77
2019-04-05T08:48:07.504Z,65.13
2019-04-05T08:50:40.550Z,68.07
2019-04-05T08:53:11.011Z,67.27
2019-04-05T08:55:43.281Z,67.50
2019-04-05T08:58:15.052Z,66.87
2019-04-05T09:00:48.781Z,65.60
2019-04-05T09:03:22.282Z,65.77
2019-04-05T09:05:53.479Z,62.87
2019-04-05T09:08:24.475Z,63.50
2019-04-05T09:10:55.743Z,64.53
2019-04-05T09:13:29.537Z,66.83
2019-04-05T09:16:01.539Z,64.73
2019-04-05T09:18:32.094Z,65.03
2019-04-05T09:21:02.509Z,77.15
2019-04-05T09:23:33.029Z,68.53
2019-04-05T09:26:03.610Z,62.67
2019-04-05T09:28:36.905Z,61.57
2019-04-05T09:31:11.165Z,61.30
2019-04-05T09:33:42.954Z,61.33
2019-04-05T09:36:16.069Z,62.37
2019-04-05T09:38:54.008Z,59.73
2019-04-05T09:41:34.441Z,61.07
2019-04-05T09:44:07.103Z,60.87
2019-04-05T09:46:46.485Z,62.37
2019-04-05T09:49:15.660Z,59.63
2019-04-05T09:51:48.177Z,60.40
2019-04-05T09:54:23.683Z,60.43
2019-04-05T09:56:57.304Z,59.07
2019-04-05T09:59:32.646Z,59.03
2019-04-05T10:02:04.870Z,57.93
2019-04-05T10:04:36.343Z,59.73
2019-04-05T10:07:07.343Z,58.57
2019-04-05T10:09:41.065Z,59.40
2019-04-05T10:12:14.238Z,58.83
2019-04-05T10:14:44.710Z,59.37
2019-04-05T10:17:15.593Z,58.53
2019-04-05T10:19:50.294Z,59.33
2019-04-05T10:22:22.758Z,62.43
2019-04-05T10:24:55.739Z,62.53
2019-04-05T10:27:26.191Z,68.13
2019-04-05T10:29:57.845Z,71.77
2019-04-05T10:32:31.895Z,70.13
2019-04-05T10:35:09.412Z,70.33
2019-04-05T10:37:48.849Z,69.63
2019-04-05T10:40:22.426Z,70.40
2019-04-05T10:42:56.199Z,67.63
2019-04-05T10:45:29.047Z,69.00
2019-04-05T10:48:01.633Z,68.73
2019-04-05T10:50:32.093Z,67.30
2019-04-05T10:53:03.235Z,67.83
2019-04-05T10:55:34.320Z,70.70
2019-04-05T10:58:07.669Z,67.70
2019-04-05T11:00:38.813Z,68.03
2019-04-05T11:03:09.535Z,68.83
2019-04-05T11:05:40.034Z,67.13
2019-04-05T11:08:10.876Z,70.20
2019-04-05T11:10:43.243Z,63.93
2019-04-05T11:13:15.107Z,67.43
2019-04-05T11:15:46.361Z,65.13
2019-04-05T11:18:18.105Z,67.37
2019-04-05T11:20:50.698Z,66.50
2019-04-05T11:23:21.867Z,62.80
2019-04-05T11:25:54.680Z,68.43
2019-04-05T11:28:25.112Z,65.90
2019-04-05T11:30:57.103Z,67.03
2019-04-05T11:33:28.792Z,67.17
2019-04-05T11:36:01.237Z,66.13
2019-04-05T11:38:32.001Z,65.30
2019-04-05T11:41:04.889Z,61.43
2019-04-05T11:43:37.838Z,61.50
2019-04-05T11:46:10.036Z,63.13
2019-04-05T11:48:41.393Z,62.30
2019-04-05T11:51:11.929Z,62.77
2019-04-05T11:53:42.404Z,64.37
2019-04-05T11:56:14.853Z,65.57
2019-04-05T11:58:48.756Z,63.73
2019-04-05T12:01:29.410Z,60.90
2019-04-05T12:03:59.849Z,58.67
2019-04-05T12:06:30.450Z,60.77
2019-04-05T12:09:01.996Z,60.90
2019-04-05T12:11:34.225Z,60.63
2019-04-05T12:14:06.043Z,61.27
2019-04-05T12:16:36.728Z,62.23
2019-04-05T12:19:09.470Z,60.67
2019-04-05T12:21:39.902Z,61.23
2019-04-05T12:24:10.368Z,62.83
2019-04-05T12:26:42.773Z,61.53
2019-04-05T12:29:13.847Z,63.90
2019-04-05T12:31:44.276Z,63.93
2019-04-05T12:34:15.394Z,64.80
2019-04-05T12:36:46.013Z,64.63
2019-04-05T12:39:16.477Z,64.67
2019-04-05T12:41:47.660Z,64.60
2019-04-05T12:44:20.177Z,66.97
2019-04-05T12:46:50.714Z,68.17
2019-04-05T12:49:21.175Z,67.13
2019-04-05T12:51:52.319Z,68.43
2019-04-05T12:54:24.008Z,66.73
2019-04-05T12:56:57.859Z,67.27
2019-04-05T12:59:29.165Z,66.57
2019-04-05T13:01:59.914Z,61.00
2019-04-05T13:04:30.614Z,61.40
2019-04-05T13:07:02.605Z,62.83
2019-04-05T13:09:33.083Z,65.07
2019-04-05T13:12:03.725Z,59.00
2019-04-05T13:14:34.392Z,60.27
2019-04-05T13:17:05.314Z,62.07
2019-04-05T13:19:35.792Z,62.93
2019-04-05T13:22:09.507Z,63.53
2019-04-05T13:24:40.845Z,63.67
2019-04-05T13:27:13.292Z,59.67
2019-04-05T13:29:43.733Z,61.50
2019-04-05T13:32:17.261Z,61.83
2019-04-05T13:34:49.063Z,60.67
2019-04-05T13:37:20.762Z,62.27
2019-04-05T13:39:52.497Z,62.60
2019-04-05T13:42:23.162Z,66.90
2019-04-05T13:44:55.140Z,65.60
2019-04-05T13:47:25.585Z,65.73
2019-04-05T13:49:56.872Z,65.70
2019-04-05T13:52:28.438Z,65.07
2019-04-05T13:54:58.981Z,64.03
2019-04-05T13:57:29.443Z,62.77
2019-04-05T13:59:59.982Z,66.73
2019-04-05T14:02:31.357Z,60.90
2019-04-05T14:05:02.226Z,63.17
2019-04-05T14:07:34.670Z,61.67
2019-04-05T14:10:06.441Z,59.97
2019-04-05T14:12:37.649Z,59.13
2019-04-05T14:15:12.154Z,59.13
2019-04-05T14:17:44.964Z,58.57
2019-04-05T14:20:19.627Z,56.33
2019-04-05T14:22:52.382Z,58.67
2019-04-05T14:25:23.463Z,58.53
2019-04-05T14:27:55.133Z,59.20
2019-04-05T14:30:26.572Z,61.80
2019-04-05T14:32:59.531Z,60.83
2019-04-05T14:35:30.004Z,59.33
2019-04-05T14:38:04.064Z,56.33
2019-04-05T14:40:33.985Z,58.47
2019-04-05T14:43:04.452Z,53.53
2019-04-05T14:45:35.967Z,50.97
2019-04-05T14:48:07.011Z,50.40
2019-04-05T14:50:38.858Z,50.90
2019-04-05T14:53:11.510Z,52.03
2019-04-05T14:55:43.361Z,54.80
2019-04-05T14:58:15.278Z,52.20
2019-04-05T15:00:47.153Z,48.40
2019-04-05T15:03:18.153Z,47.33
2019-04-05T15:05:48.726Z,49.73
2019-04-05T15:08:20.671Z,48.97
2019-04-05T15:10:51.782Z,49.00
2019-04-05T15:13:24.383Z,49.33
2019-04-05T15:15:55.921Z,49.23
2019-04-05T15:18:27.940Z,50.37
2019-04-05T15:20:58.908Z,47.37
2019-04-05T15:23:29.372Z,48.50
2019-04-05T15:26:00.821Z,46.70
2019-04-05T15:28:31.270Z,47.53
2019-04-05T15:31:01.740Z,48.97
2019-04-05T15:33:33.044Z,48.87
2019-04-05T15:36:05.862Z,44.83
2019-04-05T15:38:37.727Z,43.23
2019-04-05T15:41:08.263Z,44.33
2019-04-05T15:43:40.715Z,44.53
2019-04-05T15:46:12.776Z,44.33
2019-04-05T15:48:43.256Z,43.37
2019-04-05T15:51:14.881Z,42.03
2019-04-05T15:53:46.389Z,44.93
2019-04-05T15:56:16.832Z,43.50
2019-04-05T15:58:47.720Z,43.60
2019-04-05T16:01:18.506Z,41.77
2019-04-05T16:03:51.097Z,41.93
2019-04-05T16:06:23.580Z,42.07
2019-04-05T16:08:55.386Z,41.40
2019-04-05T16:11:25.858Z,40.40
2019-04-05T16:13:56.319Z,41.13
2019-04-05T16:16:28.864Z,41.60
2019-04-05T16:18:59.705Z,42.23
2019-04-05T16:21:30.179Z,41.27
2019-04-05T16:24:00.633Z,42.07
2019-04-05T16:26:32.020Z,40.00
2019-04-05T16:29:02.443Z,42.33
2019-04-05T16:31:32.912Z,42.27
2019-04-05T16:34:03.949Z,40.20
2019-04-05T16:36:35.547Z,40.90
2019-04-05T16:39:13.109Z,40.67
2019-04-05T16:41:43.624Z,40.90
2019-04-05T16:44:14.529Z,41.80
2019-04-05T16:46:48.311Z,40.33
2019-04-05T16:49:19.153Z,40.93
2019-04-05T16:51:50.317Z,40.47
2019-04-05T16:54:20.801Z,43.20
2019-04-05T16:56:53.692Z,41.53
2019-04-05T16:59:25.885Z,40.70
2019-04-05T17:01:56.882Z,42.40
2019-04-05T17:04:28.383Z,42.27
2019-04-05T17:06:59.075Z,42.57
2019-04-05T17:09:29.519Z,42.33
2019-04-05T17:12:00.621Z,43.57
2019-04-05T17:14:32.797Z,48.00
2019-04-05T17:17:03.386Z,50.03
2019-04-05T17:19:37.249Z,51.47
2019-04-05T17:22:07.958Z,46.77
2019-04-05T17:24:38.503Z,44.67
2019-04-05T17:27:09.122Z,44.63
2019-04-05T17:29:40.253Z,42.87
2019-04-05T17:32:10.689Z,46.77
2019-04-05T17:34:42.055Z,47.73
2019-04-05T17:37:13.855Z,53.07
2019-04-05T17:39:45.250Z,48.40
2019-04-05T17:42:15.720Z,43.00
2019-04-05T17:44:46.172Z,44.07
2019-04-05T17:47:16.612Z,44.77
2019-04-05T17:49:47.043Z,38.47
2019-04-05T17:52:17.712Z,38.97
2019-04-05T17:54:48.184Z,40.67
2019-04-05T17:57:18.968Z,40.90
2019-04-05T17:59:49.638Z,40.47
2019-04-05T18:02:20.178Z,40.93
2019-04-05T18:04:50.678Z,43.10
2019-04-05T18:07:21.237Z,42.03
2019-04-05T18:09:52.528Z,41.43
2019-04-05T18:12:22.966Z,39.93
2019-04-05T18:14:55.271Z,40.20
2019-04-05T18:17:26.306Z,39.30
2019-04-05T18:19:56.861Z,40.63
2019-04-05T18:22:27.319Z,40.40
2019-04-05T18:24:57.851Z,39.77
2019-04-05T18:27:28.318Z,40.07
2019-04-05T18:29:58.785Z,41.03
2019-04-05T18:32:31.379Z,37.80
2019-04-05T18:35:01.997Z,39.10
2019-04-05T18:37:37.655Z,39.00
2019-04-05T18:40:08.937Z,38.23
2019-04-05T18:42:40.901Z,37.73
2019-04-05T18:45:12.843Z,36.93
2019-04-05T18:47:43.280Z,35.87
2019-04-05T18:50:16.797Z,37.30
2019-04-05T18:52:47.263Z,36.97
2019-04-05T18:55:17.737Z,36.93
2019-04-05T18:57:48.906Z,36.43
2019-04-05T19:00:21.584Z,36.80
2019-04-05T19:02:53.915Z,37.20
2019-04-05T19:05:25.123Z,35.27
2019-04-05T19:07:55.581Z,37.63
2019-04-05T19:10:36.472Z,36.90
2019-04-05T19:12:59.921Z,37.93
2019-04-05T19:15:30.487Z,38.13
2019-04-05T19:18:01.330Z,39.70
2019-04-05T19:20:31.781Z,39.30
2019-04-05T19:23:03.317Z,37.20
2019-04-05T19:25:34.820Z,38.70
2019-04-05T19:28:05.613Z,38.93
2019-04-05T19:50:56.268Z,37.50
2019-04-05T19:53:26.802Z,37.20
2019-04-05T19:55:57.240Z,37.57
2019-04-05T19:58:27.741Z,35.83
2019-04-05T20:01:01.096Z,37.50
2019-04-05T20:03:33.099Z,36.60
2019-04-05T20:06:03.816Z,36.40
2019-04-05T20:08:34.352Z,35.80
2019-04-05T20:11:05.259Z,36.43
2019-04-05T20:13:35.937Z,36.33
2019-04-05T20:16:06.372Z,37.50
2019-04-05T20:18:37.079Z,36.60
2019-04-05T20:21:08.443Z,36.63
2019-04-05T20:23:47.404Z,35.30
2019-04-05T20:26:14.336Z,35.57
2019-04-05T20:28:46.645Z,36.40
2019-04-05T20:31:19.419Z,35.00
2019-04-05T20:33:52.467Z,35.63
2019-04-05T20:36:24.866Z,35.37
2019-04-05T20:38:57.773Z,35.67
2019-04-05T20:41:30.178Z,35.40
2019-04-05T20:44:04.487Z,36.50
2019-04-05T20:46:38.501Z,36.03
2019-04-05T20:49:30.806Z,37.83
2019-04-05T20:52:03.072Z,36.50
2019-04-05T20:54:35.755Z,37.33
2019-04-05T20:57:06.570Z,37.93
2019-04-05T20:59:39.662Z,37.67
2019-04-05T21:02:12.834Z,38.67
2019-04-05T21:04:45.437Z,37.93
2019-04-05T21:07:17.271Z,36.10
2019-04-05T21:09:49.770Z,36.93
2019-04-05T21:12:22.370Z,35.87
2019-04-05T21:14:55.377Z,40.50
2019-04-05T21:17:27.801Z,39.53
2019-04-05T21:19:59.406Z,36.37
2019-04-05T21:22:31.678Z,37.67
2019-04-05T21:25:03.777Z,36.10
2019-04-05T21:27:34.298Z,35.77
2019-04-05T21:30:05.273Z,34.63
2019-04-05T21:32:37.225Z,33.63
2019-04-05T21:35:08.341Z,35.10
2019-04-05T21:37:39.275Z,34.43
2019-04-05T21:40:12.493Z,35.87
2019-04-05T21:42:43.316Z,34.93
2019-04-05T21:45:16.286Z,36.03
2019-04-05T21:47:48.390Z,35.10
2019-04-05T21:50:20.655Z,34.50
2019-04-05T21:52:52.854Z,34.67
2019-04-05T21:55:25.887Z,37.03
2019-04-05T21:57:57.921Z,32.17
2019-04-05T22:00:43.607Z,35.37
2019-04-05T22:03:28.075Z,35.00
2019-04-05T22:06:00.271Z,35.30
2019-04-05T22:08:31.680Z,34.40
2019-04-05T22:11:02.156Z,34.83
2019-04-05T22:13:33.892Z,34.70
2019-04-05T22:16:06.463Z,35.47
2019-04-05T22:18:39.141Z,33.40
2019-04-05T22:21:09.601Z,35.07
2019-04-05T22:23:41.139Z,35.50
2019-04-05T22:26:12.676Z,36.23
2019-04-05T22:28:43.160Z,36.20
2019-04-05T22:31:15.264Z,37.70
2019-04-05T22:33:46.838Z,35.90
2019-04-05T22:36:19.555Z,32.77
2019-04-05T22:38:51.518Z,30.27
2019-04-05T22:41:22.387Z,32.27
2019-04-05T22:43:53.094Z,32.87
2019-04-05T22:46:23.849Z,34.37
2019-04-05T22:48:55.834Z,34.10
2019-04-05T22:51:28.270Z,33.67
2019-04-05T22:54:03.945Z,34.37
2019-04-05T22:56:37.333Z,33.50
2019-04-05T22:59:07.793Z,31.67
2019-04-05T23:01:39.537Z,27.63
2019-04-05T23:04:09.993Z,37.13
2019-04-05T23:06:42.082Z,31.57
2019-04-05T23:09:14.960Z,29.40
2019-04-05T23:11:46.248Z,34.93
2019-04-05T23:14:16.694Z,34.33
2019-04-05T23:16:47.549Z,31.97
2019-04-05T23:19:18.282Z,31.50
2019-04-05T23:21:49.212Z,33.50
2019-04-05T23:24:19.673Z,32.90
2019-04-05T23:26:50.142Z,33.20
2019-04-05T23:29:20.634Z,34.87
2019-04-05T23:31:51.891Z,35.90
2019-04-05T23:34:22.344Z,35.23
2019-04-05T23:36:52.885Z,38.90
2019-04-05T23:39:23.529Z,36.30
2019-04-05T23:41:55.261Z,36.67
2019-04-05T23:44:27.240Z,36.37
2019-04-05T23:46:57.707Z,35.63
2019-04-05T23:49:28.175Z,35.03
2019-04-05T23:52:00.904Z,35.57
2019-04-05T23:54:32.099Z,34.97
2019-04-05T23:57:03.988Z,33.73
2019-04-05T23:59:34.472Z,31.83
